KTCC

Tucumcari Municipal Airport

Tucumcari, New Mexico, USA
METAR KTCC 220453Z AUTO 18011KT 10SM CLR 28/13 A2995 RMK AO2 SLP071 T02780128
Observed Flight Rules
Jun-22 @ 04:53 UTC (40 minutes ago) Visual Flight Rules
Wind Visibility Clouds
180° at 11 knots 10 miles
  • Clear skies
Temperatures Readings
Current 28°C / 82°F
Dewpoint 13°C / 55°F
Humidity 40%
Altimeter 29.95" Hg
Pressure 1007.1 hPa
Elevation 1235
METAR KTCC 220453Z AUTO 18011KT 10SM CLR 28/13 A2995 RMK AO2 SLP071 T02780128
Observed Flight Rules
Jun-22 @ 04:53 UTC
(40 minutes ago)
VFR
Wind Visibility
180° at 11 knots 10 miles
Clouds
  • Clear skies
Temperature Dewpoint
28°C / 82°F 13°C / 55°F
Humidity Altimeter Pressure
40% 29.95" Hg 1007.1 hPa